createdAt,value
2023-02-19T00:01:08.758Z,10.00
2023-02-19T00:03:36.742Z,10.48
2023-02-19T00:06:05.265Z,12.10
2023-02-19T00:08:33.178Z,8.85
2023-02-19T00:11:04.290Z,14.07
2023-02-19T00:13:32.080Z,8.60
2023-02-19T00:16:00.539Z,8.68
2023-02-19T00:18:29.597Z,7.35
2023-02-19T00:20:57.371Z,4.43
2023-02-19T00:23:24.921Z,5.82
2023-02-19T00:25:52.388Z,7.32
2023-02-19T00:28:19.858Z,15.77
2023-02-19T00:30:47.386Z,11.15
2023-02-19T00:33:15.201Z,8.00
2023-02-19T00:35:43.959Z,7.32
2023-02-19T00:38:11.593Z,10.48
2023-02-19T00:40:39.414Z,23.38
2023-02-19T00:43:06.885Z,7.63
2023-02-19T00:45:35.685Z,6.20
2023-02-19T00:48:03.192Z,23.73
2023-02-19T00:50:30.666Z,39.42
2023-02-19T00:52:59.457Z,33.38
2023-02-19T00:55:26.943Z,29.60
2023-02-19T00:57:54.449Z,41.25
2023-02-19T01:00:22.097Z,40.17
2023-02-19T01:02:49.609Z,37.22
2023-02-19T01:05:17.067Z,40.80
2023-02-19T01:07:44.532Z,8.55
2023-02-19T01:10:13.323Z,8.10
2023-02-19T01:12:40.808Z,6.93
2023-02-19T01:15:09.070Z,7.38
2023-02-19T01:17:36.787Z,13.13
2023-02-19T01:20:04.523Z,29.00
2023-02-19T01:22:31.984Z,29.10
2023-02-19T01:24:59.446Z,21.35
2023-02-19T01:27:28.243Z,8.45
2023-02-19T01:29:55.689Z,15.48
2023-02-19T01:32:23.239Z,22.77
2023-02-19T01:34:50.716Z,11.75
2023-02-19T01:37:18.343Z,28.48
2023-02-19T01:39:45.803Z,22.50
2023-02-19T01:42:15.281Z,28.70
2023-02-19T01:45:16.491Z,26.02
2023-02-19T01:47:45.567Z,21.70
2023-02-19T01:50:13.070Z,22.70
2023-02-19T01:52:40.598Z,27.08
2023-02-19T01:55:09.257Z,25.58
2023-02-19T01:57:40.087Z,25.35
2023-02-19T02:00:12.135Z,40.17
2023-02-19T02:02:40.316Z,44.00
2023-02-19T02:05:11.611Z,42.53
2023-02-19T02:07:56.999Z,47.92
2023-02-19T02:10:24.506Z,39.05
2023-02-19T02:12:53.652Z,25.42
2023-02-19T02:15:22.276Z,44.50
2023-02-19T02:17:55.202Z,31.45
2023-02-19T02:23:01.200Z,16.33
2023-02-19T02:26:06.697Z,18.50
2023-02-19T02:28:56.043Z,21.13
2023-02-19T02:31:26.986Z,20.38
2023-02-19T02:33:58.697Z,25.40
2023-02-19T02:36:29.476Z,15.35
2023-02-19T02:38:57.173Z,18.63
2023-02-19T02:41:24.690Z,11.73
2023-02-19T02:43:52.184Z,13.35
2023-02-19T02:46:21.630Z,15.70
2023-02-19T02:48:54.002Z,12.70
2023-02-19T02:51:24.788Z,16.17
2023-02-19T02:54:12.404Z,16.48
2023-02-19T02:56:41.255Z,17.23
2023-02-19T02:59:10.924Z,13.68
2023-02-19T03:02:01.172Z,17.23
2023-02-19T03:04:33.824Z,10.68
2023-02-19T03:07:05.351Z,11.50
2023-02-19T03:09:40.441Z,8.00
2023-02-19T03:12:28.268Z,4.82
2023-02-19T03:15:16.472Z,5.82
2023-02-19T03:18:04.935Z,4.97
2023-02-19T03:20:35.193Z,4.00
2023-02-19T03:23:03.280Z,5.43
2023-02-19T03:25:50.740Z,4.47
2023-02-19T03:28:19.177Z,4.22
2023-02-19T03:30:49.067Z,3.80
2023-02-19T03:33:18.414Z,4.45
2023-02-19T03:35:48.908Z,3.30
2023-02-19T03:38:18.792Z,3.22
2023-02-19T03:40:54.923Z,4.00
2023-02-19T03:43:25.921Z,3.65
2023-02-19T03:46:00.199Z,4.28
2023-02-19T03:48:31.710Z,2.63
2023-02-19T03:51:08.614Z,3.25
2023-02-19T03:53:40.519Z,2.60
2023-02-19T03:56:10.958Z,2.50
2023-02-19T03:58:43.119Z,2.85
2023-02-19T04:01:14.424Z,3.22
2023-02-19T04:03:44.267Z,3.20
2023-02-19T04:06:16.523Z,3.47
2023-02-19T04:08:47.411Z,3.13
2023-02-19T04:11:16.065Z,3.03
2023-02-19T04:13:45.977Z,2.88
2023-02-19T04:16:17.389Z,2.85
2023-02-19T04:18:45.611Z,2.97
2023-02-19T04:21:22.132Z,3.22
2023-02-19T04:23:50.095Z,2.70
2023-02-19T04:26:18.316Z,2.75
2023-02-19T04:28:45.764Z,4.28
2023-02-19T04:31:13.595Z,3.60
2023-02-19T04:33:41.382Z,3.63
2023-02-19T04:36:11.529Z,4.20
2023-02-19T04:38:40.366Z,3.25
2023-02-19T04:41:07.976Z,3.53
2023-02-19T04:43:35.557Z,5.20
2023-02-19T04:46:03.210Z,3.20
2023-02-19T04:48:30.694Z,3.65
2023-02-19T04:50:58.367Z,3.30
2023-02-19T04:53:25.873Z,4.22
2023-02-19T04:55:54.657Z,4.65
2023-02-19T04:58:22.487Z,3.97
2023-02-19T05:00:53.292Z,5.05
2023-02-19T05:03:20.767Z,5.22
2023-02-19T05:05:48.229Z,3.85
2023-02-19T05:08:15.706Z,4.13
2023-02-19T05:10:43.200Z,6.18
2023-02-19T05:13:12.090Z,3.80
2023-02-19T05:15:39.616Z,4.43
2023-02-19T05:18:07.177Z,4.30
2023-02-19T05:20:34.662Z,5.78
2023-02-19T05:23:02.153Z,7.95
2023-02-19T05:25:29.609Z,4.82
2023-02-19T05:28:17.025Z,4.50
2023-02-19T05:30:46.252Z,6.43
2023-02-19T05:33:14.695Z,4.38
2023-02-19T05:35:43.691Z,5.07
2023-02-19T05:38:11.905Z,6.93
2023-02-19T05:40:39.734Z,6.47
2023-02-19T05:43:07.403Z,5.65
2023-02-19T05:45:35.669Z,4.50
2023-02-19T05:48:04.764Z,3.92
2023-02-19T05:50:33.288Z,4.60
2023-02-19T05:53:01.677Z,3.60
2023-02-19T05:55:29.466Z,3.70
2023-02-19T05:57:57.203Z,4.72
2023-02-19T06:00:26.976Z,3.65
2023-02-19T06:02:54.766Z,4.07
2023-02-19T06:05:23.582Z,5.45
2023-02-19T06:07:51.391Z,3.10
2023-02-19T06:10:19.004Z,3.97
2023-02-19T06:12:46.474Z,3.60
2023-02-19T06:15:13.948Z,3.25
2023-02-19T06:17:41.437Z,3.17
2023-02-19T06:20:09.799Z,3.05
2023-02-19T06:22:38.569Z,3.20
2023-02-19T06:25:07.860Z,3.53
2023-02-19T06:27:37.455Z,2.53
2023-02-19T06:30:05.316Z,2.83
2023-02-19T06:32:32.856Z,3.08
2023-02-19T06:35:00.352Z,3.63
2023-02-19T06:37:27.879Z,3.20
2023-02-19T06:39:56.636Z,2.75
2023-02-19T06:42:24.106Z,3.08
2023-02-19T06:44:51.565Z,2.97
2023-02-19T06:47:19.054Z,2.72
2023-02-19T06:49:46.510Z,3.55
2023-02-19T06:52:14.045Z,3.05
2023-02-19T06:54:41.506Z,2.72
2023-02-19T06:57:10.282Z,2.90
2023-02-19T06:59:37.765Z,2.58
2023-02-19T07:02:06.073Z,3.17
2023-02-19T07:04:33.623Z,3.00
2023-02-19T07:07:01.123Z,3.20
2023-02-19T07:09:28.718Z,3.10
2023-02-19T07:11:56.184Z,4.20
2023-02-19T07:14:25.069Z,3.90
2023-02-19T07:16:52.549Z,3.30
2023-02-19T07:19:20.008Z,3.90
2023-02-19T07:21:47.477Z,4.13
2023-02-19T07:24:14.920Z,3.70
2023-02-19T07:26:42.387Z,4.68
2023-02-19T07:29:10.647Z,4.53
2023-02-19T07:31:39.602Z,4.95
2023-02-19T07:34:07.998Z,4.88
2023-02-19T07:36:35.464Z,5.40
2023-02-19T07:39:02.918Z,8.25
2023-02-19T07:41:30.437Z,5.30
2023-02-19T07:43:57.982Z,5.43
2023-02-19T07:46:25.910Z,5.68
2023-02-19T07:48:54.692Z,6.03
2023-02-19T07:51:22.264Z,6.10
2023-02-19T07:53:51.228Z,4.97
2023-02-19T07:56:19.790Z,6.78
2023-02-19T07:58:47.393Z,7.93
2023-02-19T08:01:16.362Z,5.53
2023-02-19T08:03:43.706Z,5.50
2023-02-19T08:06:13.177Z,5.97
2023-02-19T08:08:41.021Z,6.20
2023-02-19T08:11:26.371Z,9.52
2023-02-19T08:13:54.148Z,5.05
2023-02-19T08:16:36.737Z,5.18
2023-02-19T08:19:09.838Z,6.15
2023-02-19T08:21:38.640Z,5.63
2023-02-19T08:24:06.695Z,6.75
2023-02-19T08:26:34.228Z,7.15
2023-02-19T08:29:01.765Z,7.00
2023-02-19T08:31:29.450Z,7.63
2023-02-19T08:33:56.977Z,7.97
2023-02-19T08:36:24.532Z,9.40
2023-02-19T08:38:53.318Z,9.18
2023-02-19T08:41:22.647Z,9.00
2023-02-19T08:43:50.091Z,10.63
2023-02-19T08:46:17.708Z,10.35
2023-02-19T08:48:45.202Z,8.43
2023-02-19T08:51:13.572Z,9.77
2023-02-19T08:53:41.833Z,13.70
2023-02-19T08:56:12.237Z,9.85
2023-02-19T08:58:40.092Z,11.85
2023-02-19T09:01:09.568Z,12.05
2023-02-19T09:03:37.306Z,9.90
2023-02-19T09:06:05.157Z,9.38
2023-02-19T09:08:32.737Z,9.88
2023-02-19T09:11:01.229Z,8.82
2023-02-19T09:13:30.046Z,7.35
2023-02-19T09:15:57.929Z,7.25
2023-02-19T09:18:26.091Z,7.25
2023-02-19T09:20:53.561Z,10.07
2023-02-19T09:23:21.059Z,7.55
2023-02-19T09:25:48.536Z,7.50
2023-02-19T09:28:16.884Z,6.05
2023-02-19T09:30:45.745Z,9.15
2023-02-19T09:33:13.290Z,6.85
2023-02-19T09:35:41.115Z,5.40
2023-02-19T09:38:10.754Z,5.97
2023-02-19T09:40:38.991Z,4.78
2023-02-19T09:43:08.099Z,4.47
2023-02-19T09:45:37.957Z,5.95
2023-02-19T09:48:07.500Z,4.30
2023-02-19T09:50:37.921Z,6.68
2023-02-19T09:53:08.624Z,9.63
2023-02-19T09:55:37.892Z,6.43
2023-02-19T09:58:29.902Z,6.13
2023-02-19T10:00:59.680Z,6.72
2023-02-19T10:03:31.842Z,6.97
2023-02-19T10:06:00.235Z,5.97
2023-02-19T10:08:27.689Z,6.38
2023-02-19T10:10:55.640Z,4.50
2023-02-19T10:13:25.495Z,9.38
2023-02-19T10:15:54.165Z,5.05
2023-02-19T10:18:24.042Z,7.60
2023-02-19T10:20:53.651Z,11.00
2023-02-19T10:23:21.377Z,10.30
2023-02-19T10:25:50.616Z,9.48
2023-02-19T10:28:19.589Z,10.63
2023-02-19T10:30:53.117Z,5.20
2023-02-19T10:33:21.099Z,7.60
2023-02-19T10:35:57.942Z,8.35
2023-02-19T10:38:29.164Z,8.40
2023-02-19T10:41:02.573Z,10.27
2023-02-19T10:43:34.645Z,5.40
2023-02-19T10:46:05.152Z,6.50
2023-02-19T10:48:34.053Z,7.68
2023-02-19T10:51:05.990Z,6.97
2023-02-19T10:53:41.124Z,10.80
2023-02-19T10:56:10.556Z,9.60
2023-02-19T10:58:40.252Z,9.25
2023-02-19T11:01:13.416Z,7.70
2023-02-19T11:03:41.646Z,5.47
2023-02-19T11:06:12.124Z,13.07
2023-02-19T11:08:48.722Z,11.18
2023-02-19T11:11:37.349Z,8.90
2023-02-19T11:14:07.231Z,8.57
2023-02-19T11:16:41.013Z,7.65
2023-02-19T11:19:26.546Z,6.07
2023-02-19T11:21:56.077Z,7.57
2023-02-19T11:24:27.231Z,7.85
2023-02-19T11:26:54.838Z,6.47
2023-02-19T11:29:24.491Z,6.90
2023-02-19T11:31:52.139Z,9.57
2023-02-19T11:34:30.357Z,7.40
2023-02-19T11:37:13.539Z,5.35
2023-02-19T11:42:36.116Z,7.15
2023-02-19T11:45:18.044Z,8.30
2023-02-19T11:48:06.905Z,6.40
2023-02-19T11:50:46.806Z,10.23
2023-02-19T11:53:21.251Z,8.18
2023-02-19T11:56:01.899Z,5.60
2023-02-19T11:58:46.996Z,9.60
2023-02-19T12:01:24.264Z,5.22
2023-02-19T12:04:09.212Z,9.98
2023-02-19T12:06:44.945Z,6.05
2023-02-19T12:09:30.769Z,7.72
2023-02-19T12:12:18.413Z,7.32
2023-02-19T12:15:07.482Z,4.65
2023-02-19T12:17:49.128Z,7.47
2023-02-19T12:20:22.719Z,6.28
2023-02-19T12:22:54.423Z,5.28
2023-02-19T12:25:45.714Z,7.97
2023-02-19T12:28:29.117Z,6.75
2023-02-19T12:31:16.527Z,4.10
2023-02-19T12:34:09.728Z,6.47
2023-02-19T12:36:42.844Z,9.80
2023-02-19T12:39:15.417Z,11.18
2023-02-19T12:41:50.199Z,8.45
2023-02-19T12:44:20.203Z,6.85
2023-02-19T12:46:50.758Z,7.70
2023-02-19T12:49:22.863Z,3.67
2023-02-19T12:51:51.402Z,7.78
2023-02-19T12:54:23.587Z,4.75
2023-02-19T12:56:56.362Z,4.38
2023-02-19T12:59:27.602Z,7.43
2023-02-19T13:02:00.381Z,6.60
2023-02-19T13:04:36.300Z,7.05
2023-02-19T13:07:07.680Z,9.30
2023-02-19T13:09:38.076Z,8.05
2023-02-19T13:12:09.641Z,8.65
2023-02-19T13:14:39.761Z,8.82
2023-02-19T13:17:17.654Z,6.68
2023-02-19T13:19:49.560Z,10.63
2023-02-19T13:22:39.513Z,9.75
2023-02-19T13:25:07.952Z,8.90
2023-02-19T13:27:49.262Z,5.28
2023-02-19T13:30:29.067Z,5.47
2023-02-19T13:33:02.531Z,11.13
2023-02-19T13:35:52.974Z,6.70
2023-02-19T13:38:20.663Z,5.43
2023-02-19T13:40:54.887Z,5.13
2023-02-19T13:43:25.773Z,12.55
2023-02-19T13:45:56.770Z,6.78
2023-02-19T13:48:30.291Z,6.30
2023-02-19T13:51:35.549Z,5.35
2023-02-19T13:54:14.674Z,7.55
2023-02-19T13:56:42.208Z,6.80
2023-02-19T13:59:24.609Z,7.63
2023-02-19T14:02:14.273Z,6.53
2023-02-19T14:04:50.321Z,4.40
2023-02-19T14:07:29.405Z,5.18
2023-02-19T14:09:58.475Z,5.07
2023-02-19T14:12:32.796Z,6.35
2023-02-19T14:15:45.998Z,4.93
2023-02-19T14:18:45.064Z,7.85
2023-02-19T14:21:18.326Z,9.48
2023-02-19T14:23:46.433Z,8.35
2023-02-19T14:26:14.038Z,4.75
2023-02-19T14:28:45.657Z,10.45
2023-02-19T14:31:22.462Z,10.32
2023-02-19T14:33:51.336Z,4.93
2023-02-19T14:36:31.169Z,5.85
2023-02-19T14:39:00.553Z,7.75
2023-02-19T14:41:28.814Z,7.22
2023-02-19T14:43:57.772Z,5.53
2023-02-19T14:46:31.591Z,7.18
2023-02-19T14:49:05.092Z,7.60
2023-02-19T14:51:34.896Z,5.78
2023-02-19T14:54:07.457Z,4.75
2023-02-19T14:56:35.976Z,2.90
2023-02-19T14:59:22.847Z,3.60
2023-02-19T15:02:02.923Z,4.28
2023-02-19T15:04:35.082Z,4.28
2023-02-19T15:07:04.273Z,5.38
2023-02-19T15:09:33.831Z,6.93
2023-02-19T15:12:02.773Z,4.22
2023-02-19T15:14:32.295Z,5.25
2023-02-19T15:17:04.065Z,8.52
2023-02-19T15:19:34.987Z,4.75
2023-02-19T15:22:03.098Z,5.43
2023-02-19T15:24:30.974Z,5.13
2023-02-19T15:26:58.657Z,3.38
2023-02-19T15:29:27.479Z,4.18
2023-02-19T15:31:56.485Z,6.97
2023-02-19T15:34:26.932Z,9.52
2023-02-19T15:36:58.448Z,11.52
2023-02-19T15:39:27.580Z,3.15
2023-02-19T15:41:59.991Z,3.42
2023-02-19T15:44:33.486Z,8.00
2023-02-19T15:47:05.167Z,6.15
2023-02-19T15:49:40.395Z,5.95
2023-02-19T15:52:10.450Z,6.90
2023-02-19T15:54:42.911Z,4.00
2023-02-19T15:57:15.531Z,5.55
2023-02-19T15:59:47.184Z,6.78
2023-02-19T16:02:15.420Z,3.38
2023-02-19T16:04:45.232Z,3.45
2023-02-19T16:07:24.307Z,4.93
2023-02-19T16:10:07.101Z,5.43
2023-02-19T16:12:34.720Z,4.90
2023-02-19T16:15:13.299Z,4.00
2023-02-19T16:17:43.316Z,4.57
2023-02-19T16:20:22.062Z,5.72
2023-02-19T16:22:49.840Z,3.38
2023-02-19T16:25:27.261Z,5.78
2023-02-19T16:27:55.128Z,3.38
2023-02-19T16:30:34.046Z,5.65
2023-02-19T16:33:21.542Z,3.20
2023-02-19T16:35:52.356Z,4.85
2023-02-19T16:38:20.935Z,7.28
2023-02-19T16:41:07.553Z,11.35
2023-02-19T16:43:42.211Z,6.47
2023-02-19T16:46:11.733Z,11.57
2023-02-19T16:48:39.692Z,7.18
2023-02-19T16:51:10.208Z,32.50
2023-02-19T16:53:37.978Z,23.50
2023-02-19T16:56:05.954Z,19.85
2023-02-19T16:58:33.493Z,21.08
2023-02-19T17:01:01.733Z,31.58
2023-02-19T17:03:29.212Z,10.63
2023-02-19T17:05:57.382Z,7.80
2023-02-19T17:08:33.997Z,6.00
2023-02-19T17:11:03.020Z,8.25
2023-02-19T17:13:30.709Z,7.93
2023-02-19T17:15:58.277Z,9.40
2023-02-19T17:18:26.004Z,4.07
2023-02-19T17:20:56.316Z,19.17
2023-02-19T17:23:24.573Z,19.95
2023-02-19T17:25:53.586Z,6.55
2023-02-19T17:28:21.092Z,8.38
2023-02-19T17:30:48.580Z,17.25
2023-02-19T17:33:16.102Z,15.00
2023-02-19T17:35:44.874Z,11.85
2023-02-19T17:38:13.335Z,22.88
2023-02-19T17:40:41.194Z,6.25
2023-02-19T17:43:10.024Z,52.60
2023-02-19T17:45:43.076Z,26.58
2023-02-19T17:48:13.221Z,11.35
2023-02-19T17:50:45.083Z,9.98
2023-02-19T17:53:12.555Z,7.63
2023-02-19T17:55:40.048Z,36.60
2023-02-19T17:58:07.580Z,23.08
2023-02-19T18:00:36.622Z,10.48
2023-02-19T18:03:04.827Z,17.20
2023-02-19T18:05:32.276Z,14.75
2023-02-19T18:07:59.921Z,5.97
2023-02-19T18:10:27.415Z,10.05
2023-02-19T18:12:54.995Z,6.38
2023-02-19T18:15:24.538Z,12.85
2023-02-19T18:17:54.041Z,21.52
2023-02-19T18:20:23.215Z,7.13
2023-02-19T18:22:51.045Z,10.70
2023-02-19T18:25:19.497Z,12.93
2023-02-19T18:27:47.416Z,8.25
2023-02-19T18:30:17.734Z,8.60
2023-02-19T18:32:45.629Z,4.80
2023-02-19T18:35:14.629Z,7.47
2023-02-19T18:37:42.099Z,4.57
2023-02-19T18:40:10.628Z,8.35
2023-02-19T18:42:39.140Z,9.30
2023-02-19T18:45:06.906Z,7.63
2023-02-19T18:47:34.394Z,9.52
2023-02-19T18:50:02.133Z,12.18
2023-02-19T18:52:30.908Z,10.73
2023-02-19T18:54:58.425Z,11.52
2023-02-19T18:57:26.542Z,13.15
2023-02-19T18:59:54.192Z,6.80
2023-02-19T19:02:21.745Z,4.45
2023-02-19T19:04:50.401Z,4.78
2023-02-19T19:07:18.158Z,6.03
2023-02-19T19:09:47.004Z,7.13
2023-02-19T19:12:15.348Z,7.53
2023-02-19T19:14:42.861Z,8.15
2023-02-19T19:17:10.509Z,5.43
2023-02-19T19:19:38.011Z,4.50
2023-02-19T19:22:05.544Z,11.50
2023-02-19T19:24:33.075Z,24.33
2023-02-19T19:27:01.884Z,16.15
2023-02-19T19:29:29.597Z,21.98
2023-02-19T19:31:57.127Z,14.27
2023-02-19T19:34:24.722Z,46.65
2023-02-19T19:36:52.355Z,47.03
2023-02-19T19:39:19.874Z,28.25
2023-02-19T19:41:47.410Z,15.80
2023-02-19T19:44:16.307Z,15.35
2023-02-19T19:46:45.393Z,21.55
2023-02-19T19:49:13.012Z,18.02
2023-02-19T19:51:40.472Z,15.82
2023-02-19T19:54:08.428Z,13.88
2023-02-19T19:56:41.056Z,13.45
2023-02-19T19:59:10.778Z,12.20
2023-02-19T20:01:39.920Z,11.90
2023-02-19T20:04:07.540Z,7.90
2023-02-19T20:06:35.008Z,11.50
2023-02-19T20:09:02.488Z,11.07
2023-02-19T20:11:29.947Z,10.93
2023-02-19T20:13:57.460Z,10.45
2023-02-19T20:16:26.274Z,10.60
2023-02-19T20:18:55.283Z,9.25
2023-02-19T20:21:22.786Z,11.60
2023-02-19T20:23:50.278Z,8.88
2023-02-19T20:26:23.111Z,11.32
2023-02-19T20:28:50.610Z,13.65
2023-02-19T20:31:18.545Z,11.30
2023-02-19T20:33:47.716Z,10.18
2023-02-19T20:36:16.509Z,12.85
2023-02-19T20:38:44.124Z,8.43
2023-02-19T20:41:12.311Z,9.70
2023-02-19T20:43:40.688Z,8.70
2023-02-19T20:46:08.546Z,7.65
2023-02-19T20:48:36.068Z,9.60
2023-02-19T20:51:03.574Z,6.60
2023-02-19T20:53:32.794Z,9.52
2023-02-19T20:56:00.371Z,7.13
2023-02-19T20:58:28.308Z,10.75
2023-02-19T21:00:55.820Z,6.95
2023-02-19T21:03:23.497Z,9.27
2023-02-19T21:05:50.993Z,9.25
2023-02-19T21:08:18.542Z,8.43
2023-02-19T21:10:47.783Z,10.27
2023-02-19T21:13:15.301Z,9.98
2023-02-19T21:15:42.798Z,9.63
2023-02-19T21:18:10.308Z,6.93
2023-02-19T21:20:37.753Z,8.13
2023-02-19T21:23:05.497Z,9.73
2023-02-19T21:25:33.247Z,6.80
2023-02-19T21:28:02.164Z,7.43
2023-02-19T21:30:29.728Z,9.88
2023-02-19T21:32:57.212Z,9.05
2023-02-19T21:35:24.840Z,12.18
2023-02-19T21:37:52.325Z,10.15
2023-02-19T21:40:21.521Z,7.63
2023-02-19T21:42:48.988Z,12.32
2023-02-19T21:45:17.818Z,7.20
2023-02-19T21:47:45.287Z,7.75
2023-02-19T21:50:13.259Z,8.00
2023-02-19T21:52:40.717Z,10.30
2023-02-19T21:55:08.507Z,7.25
2023-02-19T21:57:35.983Z,9.98
2023-02-19T22:00:05.403Z,8.95
2023-02-19T22:02:34.333Z,12.15
2023-02-19T22:05:02.497Z,8.00
2023-02-19T22:07:30.542Z,13.35
2023-02-19T22:09:58.102Z,9.02
2023-02-19T22:12:25.605Z,11.63
2023-02-19T22:14:53.655Z,7.45
2023-02-19T22:17:21.271Z,8.02
2023-02-19T22:19:50.044Z,5.97
2023-02-19T22:22:17.513Z,6.55
2023-02-19T22:24:44.990Z,8.43
2023-02-19T22:27:12.437Z,7.20
2023-02-19T22:29:39.995Z,7.95
2023-02-19T22:32:08.200Z,9.25
2023-02-19T22:34:39.434Z,6.03
2023-02-19T22:37:08.268Z,5.82
2023-02-19T22:39:35.841Z,7.93
2023-02-19T22:42:03.329Z,7.20
2023-02-19T22:44:30.809Z,7.38
2023-02-19T22:46:58.270Z,6.30
2023-02-19T22:49:25.808Z,5.28
2023-02-19T22:51:56.396Z,6.22
2023-02-19T22:54:27.064Z,4.68
2023-02-19T22:56:54.674Z,6.72
2023-02-19T22:59:22.397Z,5.78
2023-02-19T23:01:50.196Z,6.10
2023-02-19T23:04:17.752Z,7.93
2023-02-19T23:06:45.694Z,5.03
2023-02-19T23:09:16.696Z,5.40
2023-02-19T23:11:46.279Z,5.72
2023-02-19T23:14:14.458Z,5.93
2023-02-19T23:16:42.085Z,9.15
2023-02-19T23:19:11.645Z,5.25
2023-02-19T23:21:42.246Z,6.07
2023-02-19T23:24:10.474Z,6.22
2023-02-19T23:26:42.845Z,7.55
2023-02-19T23:29:11.930Z,6.13
2023-02-19T23:31:39.536Z,6.63
2023-02-19T23:34:08.005Z,6.88
2023-02-19T23:36:40.842Z,5.80
2023-02-19T23:39:09.828Z,5.88
2023-02-19T23:41:37.337Z,7.75
2023-02-19T23:44:04.851Z,5.85
2023-02-19T23:46:33.843Z,7.93
2023-02-19T23:49:01.340Z,8.43
2023-02-19T23:51:28.940Z,5.78
2023-02-19T23:53:56.396Z,7.88
2023-02-19T23:56:24.717Z,6.38
2023-02-19T23:58:52.234Z,6.10
